Time;durP1;ratioP1;P1;durP2;ratioP2;P2;SDS_P1;SDS_P2;PMS_P1;PMS_P2;Temp;Humidity;BMP_temperature;BMP_pressure;BME280_temperature;BME280_humidity;BME280_pressure;Samples;Min_cycle;Max_cycle;Signal;HPM_P1;HPM_P2
2023/07/17 00:00:02;;;;;;;6.65;4.57;;;;;;;27.07;46.29;98936.22;5084532;28;20036;-74
2023/07/17 00:02:29;;;;;;;6.57;4.43;;;;;;;27.49;45.95;99010.56;5085363;28;20040;-73
2023/07/17 00:04:56;;;;;;;8.23;4.75;;;;;;;27.46;46.16;99005.53;5085325;28;20044;-74
2023/07/17 00:07:24;;;;;;;6.70;4.55;;;;;;;27.43;46.27;99006.78;5085325;28;20297;-74
2023/07/17 00:09:51;;;;;;;6.63;5.07;;;;;;;27.44;46.25;99003.00;5085576;28;20089;-73
2023/07/17 00:12:17;;;;;;;5.95;4.43;;;;;;;27.43;46.06;99001.31;5085620;28;20251;-74
2023/07/17 00:14:44;;;;;;;8.75;5.57;;;;;;;27.44;45.84;98991.28;5089615;28;20051;-73
2023/07/17 00:17:11;;;;;;;5.32;4.40;;;;;;;27.40;45.72;98985.41;5089292;28;20086;-73
2023/07/17 00:19:39;;;;;;;5.25;4.40;;;;;;;27.34;45.66;98980.75;5089479;28;20063;-72
2023/07/17 00:22:06;;;;;;;5.00;4.20;;;;;;;27.37;45.69;98987.69;5088327;28;20353;-73
2023/07/17 00:24:35;;;;;;;6.85;4.82;;;;;;;26.49;46.02;98864.94;5089407;28;20052;-74
2023/07/17 00:27:02;;;;;;;4.65;3.97;;;;;;;27.28;46.31;98986.16;5089034;28;20347;-73
2023/07/17 00:29:29;;;;;;;5.25;4.20;;;;;;;27.21;46.56;98996.97;5088148;28;20200;-73
2023/07/17 00:31:56;;;;;;;5.47;4.32;;;;;;;27.29;46.72;98988.69;5088038;28;20075;-73
2023/07/17 00:34:23;;;;;;;11.05;3.88;;;;;;;27.25;46.87;98987.41;5089037;28;20052;-73
2023/07/17 00:36:50;;;;;;;6.15;3.92;;;;;;;27.17;47.44;99003.88;5089188;28;20102;-73
2023/07/17 00:39:18;;;;;;;6.18;4.32;;;;;;;27.19;47.57;99002.63;5088852;28;20056;-73
2023/07/17 00:41:47;;;;;;;5.43;4.57;;;;;;;27.15;47.36;99012.22;5089118;28;20111;-73
2023/07/17 00:44:13;;;;;;;4.85;4.20;;;;;;;27.02;46.86;99014.00;5089045;28;20044;-73
2023/07/17 00:46:40;;;;;;;4.40;3.22;;;;;;;26.99;47.02;99009.81;5088986;28;20045;-73
2023/07/17 00:49:09;;;;;;;3.65;2.92;;;;;;;26.80;47.57;99018.66;5088694;28;20094;-73
2023/07/17 00:51:37;;;;;;;4.82;3.38;;;;;;;26.76;48.19;99025.53;5088819;28;20057;-73
2023/07/17 00:54:04;;;;;;;4.25;3.15;;;;;;;26.74;47.82;99023.00;5088793;28;20192;-73
2023/07/17 00:56:31;;;;;;;3.75;3.35;;;;;;;26.66;48.09;99031.28;5088812;28;20048;-73
2023/07/17 00:59:00;;;;;;;4.60;3.03;;;;;;;26.70;48.13;99031.75;5088431;28;20086;-73
2023/07/17 01:01:27;;;;;;;3.58;3.00;;;;;;;26.57;48.38;99032.44;5088928;28;20045;-73
2023/07/17 01:03:55;;;;;;;4.70;3.08;;;;;;;26.15;48.82;98962.66;5087489;28;20048;-73
2023/07/17 01:06:22;;;;;;;4.10;3.10;;;;;;;26.26;49.16;98994.72;5088361;28;20041;-73
2023/07/17 01:08:49;;;;;;;3.67;3.03;;;;;;;26.36;49.29;99029.72;5088190;28;20181;-73
2023/07/17 01:11:16;;;;;;;3.63;2.90;;;;;;;26.39;49.80;99026.59;5088679;28;20048;-73
2023/07/17 01:13:44;;;;;;;5.85;3.30;;;;;;;26.36;49.34;99008.81;5088439;28;20055;-72
2023/07/17 01:16:13;;;;;;;4.00;3.08;;;;;;;26.47;49.18;99040.91;5088079;28;20040;-73
2023/07/17 01:18:40;;;;;;;3.50;2.83;;;;;;;26.21;50.11;99038.75;5088152;28;20063;-73
2023/07/17 01:21:10;;;;;;;3.63;3.08;;;;;;;26.25;50.31;99052.78;5087777;28;20090;-73
2023/07/17 01:23:38;;;;;;;4.53;3.20;;;;;;;26.32;50.22;99052.88;5088317;28;20044;-73
2023/07/17 01:26:15;;;;;;;4.70;3.40;;;;;;;26.34;50.25;99045.38;5087536;28;20048;-73
2023/07/17 01:28:42;;;;;;;4.18;3.10;;;;;;;26.20;50.85;99037.06;5088161;28;20045;-73
2023/07/17 01:31:10;;;;;;;3.70;3.20;;;;;;;26.12;51.28;99050.78;5088471;28;20048;-73
2023/07/17 01:33:36;;;;;;;3.83;3.10;;;;;;;26.04;51.68;99037.31;5087129;28;20119;-73
2023/07/17 01:36:06;;;;;;;4.13;3.22;;;;;;;25.70;51.86;99027.06;5087745;28;20289;-73
2023/07/17 01:38:33;;;;;;;6.60;3.30;;;;;;;25.85;52.27;99043.31;5088337;28;20040;-73
2023/07/17 01:41:02;;;;;;;3.50;3.00;;;;;;;26.09;51.44;99034.88;5086866;28;20040;-73
2023/07/17 01:43:28;;;;;;;5.80;3.08;;;;;;;25.99;51.83;99038.91;5087945;28;20300;-73
2023/07/17 01:45:55;;;;;;;10.48;4.38;;;;;;;25.75;51.92;98989.31;5088160;28;20093;-73
2023/07/17 01:48:22;;;;;;;3.90;3.20;;;;;;;26.00;52.12;99036.00;5087835;28;20049;-73
2023/07/17 01:50:48;;;;;;;4.15;3.00;;;;;;;26.14;51.77;99034.28;5087722;28;20048;-73
2023/07/17 01:53:17;;;;;;;4.30;3.33;;;;;;;26.05;51.98;99032.72;5087475;28;20090;-73
2023/07/17 01:55:44;;;;;;;7.28;3.40;;;;;;;26.09;52.12;99040.28;5087221;28;20093;-73
2023/07/17 01:58:12;;;;;;;3.88;3.40;;;;;;;25.88;52.58;99043.78;5087334;28;20082;-73
2023/07/17 02:00:38;;;;;;;5.80;3.42;;;;;;;25.93;52.45;99054.06;5087316;28;20208;-73
2023/07/17 02:03:05;;;;;;;5.15;3.17;;;;;;;25.92;52.86;99063.25;5087783;28;20065;-73
2023/07/17 02:05:32;;;;;;;3.70;3.00;;;;;;;25.96;52.17;99050.13;5087714;28;20051;-73
2023/07/17 02:07:59;;;;;;;4.13;3.47;;;;;;;25.89;52.07;99067.19;5087102;28;20051;-73
2023/07/17 02:10:25;;;;;;;3.78;3.13;;;;;;;25.86;52.23;99061.28;5087082;28;20048;-73
2023/07/17 02:12:52;;;;;;;4.80;3.30;;;;;;;26.03;51.69;99049.22;5087228;28;20097;-73
2023/07/17 02:15:21;;;;;;;3.85;3.00;;;;;;;25.92;51.85;99050.50;5087041;28;20102;-73
2023/07/17 02:17:48;;;;;;;5.93;3.58;;;;;;;25.92;51.61;99052.38;5087232;28;20052;-73
2023/07/17 02:20:15;;;;;;;5.85;3.15;;;;;;;25.99;51.71;99053.34;5086091;28;20247;-73
2023/07/17 02:22:41;;;;;;;4.05;3.35;;;;;;;25.94;51.46;99057.63;5086795;28;20045;-73
2023/07/17 02:25:09;;;;;;;3.75;3.08;;;;;;;25.89;52.09;99047.34;5087035;28;20109;-73
2023/07/17 02:27:35;;;;;;;4.00;3.10;;;;;;;25.92;51.04;99045.06;5086965;28;20044;-72
2023/07/17 02:30:03;;;;;;;5.63;3.50;;;;;;;25.96;51.44;99039.28;5086686;28;20044;-73
2023/07/17 02:32:32;;;;;;;3.92;2.80;;;;;;;26.07;50.76;99036.94;5086587;28;20044;-73
2023/07/17 02:34:59;;;;;;;4.65;3.28;;;;;;;25.96;51.22;99047.41;5086862;28;20098;-73
2023/07/17 02:37:26;;;;;;;5.93;3.13;;;;;;;25.75;50.93;99032.75;5086510;28;20044;-73
2023/07/17 02:39:53;;;;;;;3.78;2.95;;;;;;;25.91;50.58;99051.53;5085905;28;20052;-73
2023/07/17 02:42:19;;;;;;;5.78;3.17;;;;;;;25.88;50.96;99054.63;5085617;28;20300;-73
2023/07/17 02:44:47;;;;;;;3.97;3.47;;;;;;;25.92;50.58;99044.22;5085530;28;20105;-73
2023/07/17 02:47:14;;;;;;;3.53;2.90;;;;;;;25.78;51.34;99047.81;5086362;28;20082;-73
2023/07/17 02:49:43;;;;;;;5.68;3.15;;;;;;;25.86;51.57;99051.28;5085441;28;20048;-73
2023/07/17 02:52:09;;;;;;;5.25;3.50;;;;;;;25.88;50.75;99054.63;5086405;28;20045;-73
2023/07/17 02:54:37;;;;;;;3.25;2.58;;;;;;;25.82;51.07;99054.56;5086204;28;20052;-73
2023/07/17 02:57:04;;;;;;;4.57;3.70;;;;;;;25.79;51.02;99054.94;5086444;28;20064;-73
2023/07/17 02:59:31;;;;;;;4.53;3.42;;;;;;;25.76;51.31;99064.28;5086368;28;20102;-73
2023/07/17 03:01:57;;;;;;;4.88;3.47;;;;;;;25.84;51.08;99075.06;5086026;28;20309;-73
2023/07/17 03:04:24;;;;;;;3.95;2.75;;;;;;;25.85;50.96;99071.31;5085448;28;20360;-72
2023/07/17 03:06:52;;;;;;;3.70;2.90;;;;;;;25.71;51.66;99068.59;5085320;28;20124;-72
2023/07/17 03:09:19;;;;;;;4.22;3.47;;;;;;;25.51;52.62;99084.59;5086447;28;20044;-72
2023/07/17 03:11:46;;;;;;;4.82;3.00;;;;;;;25.48;52.93;99080.41;5086348;28;20056;-73
2023/07/17 03:14:12;;;;;;;4.55;3.30;;;;;;;25.54;52.60;99079.66;5085850;28;20102;-73
2023/07/17 03:16:39;;;;;;;3.85;3.30;;;;;;;25.64;52.62;99086.66;5085813;28;20293;-73
2023/07/17 03:19:06;;;;;;;5.40;3.05;;;;;;;25.64;52.32;99084.78;5084946;28;20056;-73
2023/07/17 03:21:32;;;;;;;9.93;3.25;;;;;;;25.51;52.76;99093.59;5085751;28;20141;-73
2023/07/17 03:24:00;;;;;;;6.10;3.10;;;;;;;25.44;53.23;99100.78;5084913;28;20043;-73
2023/07/17 03:26:27;;;;;;;5.97;3.72;;;;;;;25.43;53.42;99104.53;5085908;28;20296;-72
2023/07/17 03:28:54;;;;;;;4.28;3.17;;;;;;;25.31;53.63;99103.25;5086200;28;20044;-72
2023/07/17 03:31:21;;;;;;;6.30;3.22;;;;;;;25.38;53.38;99106.13;5085558;28;20052;-73
2023/07/17 03:33:47;;;;;;;5.40;3.50;;;;;;;25.43;53.09;99107.25;5085751;28;20056;-73
2023/07/17 03:36:14;;;;;;;7.85;3.42;;;;;;;25.35;53.00;99118.19;5086100;28;20189;-73
2023/07/17 03:38:41;;;;;;;4.05;3.08;;;;;;;25.36;53.17;99121.72;5085551;28;20044;-73
2023/07/17 03:41:09;;;;;;;5.07;3.50;;;;;;;25.44;52.50;99114.34;5085756;28;20078;-73
2023/07/17 03:43:36;;;;;;;3.95;3.28;;;;;;;25.44;52.78;99121.66;5085439;28;20086;-73
2023/07/17 03:46:03;;;;;;;5.03;3.47;;;;;;;25.35;52.60;99096.47;5085921;28;20040;-73
2023/07/17 03:48:29;;;;;;;4.05;2.88;;;;;;;25.34;53.24;99107.50;5084965;28;20048;-73
2023/07/17 03:50:56;;;;;;;6.07;3.15;;;;;;;25.30;53.08;99108.88;5084588;28;20041;-73
2023/07/17 03:53:23;;;;;;;4.65;3.35;;;;;;;25.19;53.75;99102.88;5085598;28;20094;-72
2023/07/17 03:55:49;;;;;;;4.30;3.10;;;;;;;25.23;53.45;99108.78;5085575;28;20079;-72
2023/07/17 03:58:17;;;;;;;4.55;3.30;;;;;;;25.20;53.72;99101.84;5084444;28;20301;-72
2023/07/17 04:00:44;;;;;;;3.92;2.95;;;;;;;25.24;53.35;99105.03;5085580;28;20086;-73
2023/07/17 04:03:11;;;;;;;4.90;3.08;;;;;;;25.19;53.54;99107.44;5085278;28;20059;-73
2023/07/17 04:05:37;;;;;;;4.97;3.35;;;;;;;25.15;53.73;99101.56;5085872;28;20104;-72
2023/07/17 04:08:04;;;;;;;5.00;3.50;;;;;;;25.28;53.32;99101.75;5084697;28;20242;-73
2023/07/17 04:10:31;;;;;;;3.58;2.78;;;;;;;25.05;53.94;99114.53;5085476;28;20102;-72
2023/07/17 04:12:58;;;;;;;4.03;3.22;;;;;;;25.24;53.37;99111.31;5085402;28;20052;-72
2023/07/17 04:15:29;;;;;;;4.93;3.28;;;;;;;25.19;53.65;99112.88;5085443;28;20071;-72
2023/07/17 04:17:55;;;;;;;5.00;3.08;;;;;;;24.88;53.40;99054.16;5085400;28;20243;-72
2023/07/17 04:20:22;;;;;;;4.05;3.50;;;;;;;25.20;53.81;99117.28;5085242;28;20044;-72
2023/07/17 04:22:49;;;;;;;3.67;3.28;;;;;;;25.19;53.85;99121.84;5085368;28;20040;-72
2023/07/17 04:25:15;;;;;;;4.00;3.20;;;;;;;25.16;53.74;99119.50;5084217;28;20045;-73
2023/07/17 04:27:42;;;;;;;5.55;3.38;;;;;;;25.14;54.25;99128.84;5085161;28;20052;-74
2023/07/17 04:30:10;;;;;;;4.88;3.38;;;;;;;25.19;53.70;99124.56;5084924;28;20205;-73
2023/07/17 04:32:38;;;;;;;4.20;3.58;;;;;;;25.08;54.17;99141.28;5084057;28;20044;-74
2023/07/17 04:35:06;;;;;;;6.93;3.63;;;;;;;24.99;54.45;99131.50;5085212;28;20066;-73
2023/07/17 04:37:32;;;;;;;7.95;3.50;;;;;;;24.92;54.66;99139.50;5085452;28;20067;-73
2023/07/17 04:39:59;;;;;;;5.47;3.22;;;;;;;23.71;54.78;98932.63;5084730;28;20056;-73
2023/07/17 04:42:26;;;;;;;4.75;3.60;;;;;;;24.98;55.05;99135.22;5085405;28;20036;-73
2023/07/17 04:44:53;;;;;;;5.60;3.47;;;;;;;25.06;54.76;99137.06;5085262;28;20044;-73
2023/07/17 04:47:20;;;;;;;5.13;3.45;;;;;;;24.96;54.92;99138.13;5085160;28;20053;-73
2023/07/17 04:49:49;;;;;;;4.20;3.10;;;;;;;24.97;54.55;99141.69;5085411;28;20058;-73
2023/07/17 04:52:15;;;;;;;4.15;3.03;;;;;;;24.92;54.98;99149.50;5083858;28;20036;-73
2023/07/17 04:54:42;;;;;;;4.75;3.42;;;;;;;24.93;55.09;99145.78;5083931;28;20052;-73
2023/07/17 04:57:09;;;;;;;4.00;3.17;;;;;;;25.05;54.80;99154.34;5083863;28;20063;-74
2023/07/17 04:59:35;;;;;;;5.18;3.63;;;;;;;24.80;55.33;99151.81;5085825;28;20052;-73
2023/07/17 05:02:02;;;;;;;5.68;3.40;;;;;;;24.84;55.08;99147.72;5088557;28;20060;-73
2023/07/17 05:04:29;;;;;;;4.60;3.38;;;;;;;24.81;55.32;99153.50;5087350;28;20086;-74
2023/07/17 05:06:58;;;;;;;3.97;3.47;;;;;;;24.90;55.24;99155.13;5088108;28;20050;-74
2023/07/17 05:09:24;;;;;;;4.50;3.47;;;;;;;25.03;55.04;99156.41;5088259;28;20213;-73
2023/07/17 05:11:51;;;;;;;4.50;3.60;;;;;;;24.67;54.81;99107.34;5087814;28;20045;-74
2023/07/17 05:14:18;;;;;;;3.70;3.28;;;;;;;24.96;54.75;99153.53;5088418;28;20040;-74
2023/07/17 05:16:45;;;;;;;5.45;3.33;;;;;;;24.94;54.66;99153.72;5088286;28;20106;-74
2023/07/17 05:19:12;;;;;;;7.47;3.55;;;;;;;24.82;54.82;99165.16;5087683;28;20044;-73
2023/07/17 05:21:38;;;;;;;4.15;3.13;;;;;;;24.90;54.87;99152.41;5087985;28;20063;-73
2023/07/17 05:24:07;;;;;;;4.70;3.10;;;;;;;24.88;54.74;99153.59;5088213;28;20049;-73
2023/07/17 05:26:33;;;;;;;4.90;3.70;;;;;;;24.90;54.83;99154.28;5087530;28;20041;-74
2023/07/17 05:29:00;;;;;;;4.28;3.30;;;;;;;24.89;54.46;99156.13;5088377;28;20101;-73
2023/07/17 05:31:27;;;;;;;3.80;3.30;;;;;;;25.00;54.34;99154.03;5087949;28;20106;-73
2023/07/17 05:33:55;;;;;;;4.05;3.17;;;;;;;25.08;54.35;99149.41;5086894;28;20296;-73
2023/07/17 05:36:22;;;;;;;4.72;3.42;;;;;;;25.07;54.39;99157.72;5088286;28;20053;-73
2023/07/17 05:38:49;;;;;;;5.53;3.40;;;;;;;25.07;54.23;99163.16;5087442;28;20142;-74
2023/07/17 05:41:17;;;;;;;4.30;3.60;;;;;;;25.12;54.00;99156.16;5088104;28;20058;-73
2023/07/17 05:43:44;;;;;;;5.25;3.50;;;;;;;25.00;53.96;99146.72;5087836;28;20040;-73
2023/07/17 05:46:11;;;;;;;4.90;4.32;;;;;;;25.10;54.17;99158.22;5086655;28;20045;-73
2023/07/17 05:48:38;;;;;;;6.05;3.95;;;;;;;25.04;54.29;99163.50;5086527;28;20048;-73
2023/07/17 05:51:08;;;;;;;4.72;3.70;;;;;;;25.04;54.08;99164.34;5087226;28;20285;-73
2023/07/17 05:53:35;;;;;;;3.80;3.35;;;;;;;25.09;54.04;99161.94;5087562;28;20067;-73
2023/07/17 05:56:02;;;;;;;5.05;3.83;;;;;;;25.09;54.05;99148.38;5087680;28;20040;-73
2023/07/17 05:58:30;;;;;;;4.50;3.22;;;;;;;25.16;53.82;99165.59;5087830;28;20046;-74
2023/07/17 06:00:57;;;;;;;4.50;3.38;;;;;;;25.21;53.32;99157.78;5087239;28;20060;-74
2023/07/17 06:03:25;;;;;;;4.20;3.15;;;;;;;25.26;53.44;99162.66;5087188;28;20040;-74
2023/07/17 06:05:52;;;;;;;4.25;3.20;;;;;;;25.26;53.51;99160.78;5087093;28;20073;-73
2023/07/17 06:08:19;;;;;;;4.35;3.25;;;;;;;25.09;53.53;99123.97;5086240;28;20049;-74
2023/07/17 06:10:46;;;;;;;4.90;3.70;;;;;;;25.32;54.00;99155.66;5087005;28;20045;-74
2023/07/17 06:13:14;;;;;;;4.13;3.30;;;;;;;25.38;53.49;99158.50;5087076;28;20043;-74
2023/07/17 06:15:42;;;;;;;5.65;3.60;;;;;;;23.32;53.58;98825.38;5087212;28;20060;-74
2023/07/17 06:18:08;;;;;;;3.83;3.28;;;;;;;25.32;53.37;99140.25;5086884;28;20387;-74
2023/07/17 06:20:35;;;;;;;3.50;3.00;;;;;;;25.50;53.61;99162.44;5087285;28;20044;-74
2023/07/17 06:23:02;;;;;;;7.43;3.35;;;;;;;25.55;53.05;99161.91;5087062;28;20055;-73
2023/07/17 06:25:29;;;;;;;4.05;3.45;;;;;;;25.50;53.41;99172.47;5086963;28;20157;-74
2023/07/17 06:27:55;;;;;;;4.10;3.55;;;;;;;25.43;53.20;99153.38;5086722;28;20048;-74
2023/07/17 06:30:22;;;;;;;4.82;3.85;;;;;;;25.56;53.05;99174.44;5086856;28;20284;-74
2023/07/17 06:32:50;;;;;;;5.10;3.95;;;;;;;25.54;53.37;99173.78;5086832;28;20052;-74
2023/07/17 06:35:17;;;;;;;4.90;3.67;;;;;;;25.62;52.72;99178.28;5086552;28;20086;-74
2023/07/17 06:37:43;;;;;;;6.55;3.90;;;;;;;25.63;53.08;99167.22;5086518;28;20102;-73
2023/07/17 06:40:12;;;;;;;6.28;4.22;;;;;;;25.70;52.33;99176.31;5086307;28;20110;-74
2023/07/17 06:42:38;;;;;;;5.30;4.22;;;;;;;25.79;52.54;99179.78;5086668;28;20064;-74
2023/07/17 06:45:06;;;;;;;6.25;4.22;;;;;;;25.84;52.31;99178.19;5086886;28;20075;-74
2023/07/17 06:47:33;;;;;;;4.15;3.75;;;;;;;25.90;51.67;99176.63;5085413;28;20044;-74
2023/07/17 06:50:02;;;;;;;3.63;3.05;;;;;;;25.98;51.51;99183.84;5086840;28;20051;-74
2023/07/17 06:52:29;;;;;;;8.02;3.45;;;;;;;26.10;51.97;99188.63;5086528;28;20193;-74
2023/07/17 06:54:55;;;;;;;5.38;3.53;;;;;;;26.06;51.39;99186.47;5086394;28;20041;-74
2023/07/17 06:57:22;;;;;;;4.82;3.60;;;;;;;26.06;51.29;99181.88;5085194;28;20041;-74
2023/07/17 06:59:49;;;;;;;5.13;4.43;;;;;;;26.05;51.16;99174.78;5085993;28;20059;-74
2023/07/17 07:02:16;;;;;;;5.65;3.65;;;;;;;26.14;51.50;99172.78;5085979;28;20044;-74
2023/07/17 07:04:43;;;;;;;3.97;3.47;;;;;;;26.13;51.39;99180.09;5085151;28;20120;-74
2023/07/17 07:07:11;;;;;;;4.10;2.78;;;;;;;26.15;51.53;99178.03;5086490;28;20052;-74
2023/07/17 07:09:38;;;;;;;4.28;3.47;;;;;;;26.20;52.31;99182.91;5086043;28;20051;-74
2023/07/17 07:12:05;;;;;;;3.80;3.35;;;;;;;26.01;51.35;99148.19;5084984;28;20040;-74
2023/07/17 07:14:32;;;;;;;3.70;3.17;;;;;;;26.25;51.02;99183.19;5085729;28;20082;-74
2023/07/17 07:16:58;;;;;;;7.93;4.13;;;;;;;26.34;51.59;99217.34;5086441;28;20044;-74
2023/07/17 07:19:25;;;;;;;6.43;3.75;;;;;;;26.32;51.25;99185.97;5084870;28;20301;-74
2023/07/17 07:21:52;;;;;;;4.22;3.35;;;;;;;26.41;50.98;99188.41;5085758;28;20056;-75
2023/07/17 07:24:20;;;;;;;6.00;3.80;;;;;;;26.41;50.37;99184.84;5085811;28;20177;-74
2023/07/17 07:26:47;;;;;;;4.22;3.22;;;;;;;26.35;50.80;99183.72;5085878;28;20048;-74
2023/07/17 07:29:14;;;;;;;4.10;3.42;;;;;;;26.43;51.04;99186.34;5086264;28;20044;-75
2023/07/17 07:31:41;;;;;;;4.38;3.72;;;;;;;26.34;50.48;99171.19;5086114;28;20044;-74
2023/07/17 07:34:07;;;;;;;5.40;4.25;;;;;;;26.41;50.68;99185.69;5087155;28;20044;-75
2023/07/17 07:36:34;;;;;;;3.83;3.08;;;;;;;26.36;50.74;99200.88;5086817;28;20105;-75
2023/07/17 07:39:05;;;;;;;4.85;3.65;;;;;;;26.21;50.63;99180.00;5086243;28;20102;-74
2023/07/17 07:41:37;;;;;;;4.40;3.10;;;;;;;24.72;50.72;98921.53;5085105;28;20048;-75
2023/07/17 07:44:05;;;;;;;4.38;3.40;;;;;;;24.16;50.52;98847.06;5086507;28;20045;-75
2023/07/17 07:46:32;;;;;;;4.25;3.70;;;;;;;25.58;50.80;99085.53;5085895;28;20205;-74
2023/07/17 07:48:58;;;;;;;6.18;3.78;;;;;;;25.64;50.76;99071.22;5084744;28;20266;-75
2023/07/17 07:51:25;;;;;;;5.93;3.75;;;;;;;26.52;50.81;99193.34;5085472;28;20048;-74
2023/07/17 07:53:52;;;;;;;4.95;3.67;;;;;;;26.52;50.67;99192.50;5084492;28;20040;-74
2023/07/17 07:56:19;;;;;;;5.95;4.05;;;;;;;26.62;50.29;99195.78;5086171;28;20292;-75
2023/07/17 07:58:47;;;;;;;4.80;3.92;;;;;;;26.58;49.69;99190.91;5085633;28;20052;-75
2023/07/17 08:01:14;;;;;;;5.20;3.92;;;;;;;26.69;50.41;99198.59;5085465;28;20052;-75
2023/07/17 08:03:40;;;;;;;5.95;4.03;;;;;;;26.51;49.79;99182.66;5085224;28;20036;-75
2023/07/17 08:06:07;;;;;;;4.68;3.55;;;;;;;26.52;50.03;99201.50;5085481;28;20052;-74
2023/07/17 08:08:34;;;;;;;4.72;3.75;;;;;;;26.50;49.80;99209.00;5084672;28;20204;-74
2023/07/17 08:11:02;;;;;;;4.82;4.10;;;;;;;26.29;49.76;99173.63;5084568;28;20041;-75
2023/07/17 08:13:29;;;;;;;5.10;3.53;;;;;;;26.52;49.73;99206.94;5085696;28;20047;-75
2023/07/17 08:15:57;;;;;;;5.32;3.80;;;;;;;26.55;49.83;99197.56;5084515;28;20036;-74
2023/07/17 08:18:24;;;;;;;7.70;4.68;;;;;;;26.47;49.90;99192.22;5085242;28;20052;-74
2023/07/17 08:20:51;;;;;;;5.10;4.35;;;;;;;26.62;50.58;99208.53;5084842;28;20052;-75
2023/07/17 08:23:25;;;;;;;6.38;3.92;;;;;;;26.63;50.41;99210.22;5085368;28;20057;-75
2023/07/17 08:25:52;;;;;;;5.90;3.95;;;;;;;26.11;50.52;99124.28;5084090;28;20317;-75
2023/07/17 08:28:19;;;;;;;4.88;3.78;;;;;;;26.70;50.76;99222.00;5085117;28;20115;-75
2023/07/17 08:30:46;;;;;;;4.47;4.07;;;;;;;26.73;50.51;99222.47;5085452;28;20086;-75
2023/07/17 08:33:14;;;;;;;4.78;4.20;;;;;;;26.74;49.93;99234.19;5084624;28;20045;-75
2023/07/17 08:35:41;;;;;;;4.32;3.83;;;;;;;26.74;49.35;99236.91;5089327;28;20044;-75
2023/07/17 08:38:08;;;;;;;6.57;4.30;;;;;;;26.81;50.35;99235.09;5088988;28;20044;-74
2023/07/17 08:40:37;;;;;;;7.82;4.68;;;;;;;26.92;49.70;99233.78;5088546;28;20061;-75
2023/07/17 08:43:06;;;;;;;5.03;4.25;;;;;;;26.98;49.42;99236.56;5088655;28;20094;-75
2023/07/17 08:45:35;;;;;;;5.55;4.55;;;;;;;27.02;48.98;99239.72;5089107;28;20093;-75
2023/07/17 08:48:03;;;;;;;4.80;4.00;;;;;;;27.04;49.14;99238.50;5087963;28;20045;-75
2023/07/17 08:50:32;;;;;;;4.60;3.75;;;;;;;27.02;48.65;99240.56;5088387;28;20115;-74
2023/07/17 08:52:58;;;;;;;4.72;4.22;;;;;;;26.76;48.04;99213.94;5087802;28;20293;-75
2023/07/17 08:55:29;;;;;;;4.25;3.80;;;;;;;26.95;48.24;99247.81;5088613;28;20296;-75
2023/07/17 08:57:58;;;;;;;5.10;3.80;;;;;;;27.02;48.17;99250.63;5088047;28;20045;-75
2023/07/17 09:00:25;;;;;;;4.80;3.95;;;;;;;27.13;48.35;99229.19;5088375;28;20053;-75
2023/07/17 09:02:52;;;;;;;5.45;4.15;;;;;;;27.30;48.08;99257.00;5088251;28;20052;-74
2023/07/17 09:05:19;;;;;;;5.15;4.10;;;;;;;27.19;47.57;99254.78;5088669;28;20051;-74
2023/07/17 09:07:48;;;;;;;8.05;4.32;;;;;;;27.19;48.00;99273.81;5088580;28;20232;-74
2023/07/17 09:10:19;;;;;;;4.18;3.78;;;;;;;27.16;47.99;99261.44;5088387;28;20044;-74
2023/07/17 09:12:50;;;;;;;5.43;4.47;;;;;;;27.15;48.58;99269.78;5087835;28;20327;-74
2023/07/17 09:15:17;;;;;;;5.45;4.22;;;;;;;26.53;48.58;99150.72;5087108;28;20045;-74
2023/07/17 09:17:44;;;;;;;5.90;4.53;;;;;;;26.60;49.60;99154.38;5088294;28;20044;-74
2023/07/17 09:20:13;;;;;;;5.07;4.55;;;;;;;27.22;49.18;99264.44;5087017;28;20037;-74
2023/07/17 09:22:40;;;;;;;6.40;4.53;;;;;;;27.13;49.89;99278.16;5088221;28;20066;-74
2023/07/17 09:25:10;;;;;;;5.35;4.82;;;;;;;27.18;50.34;99267.53;5088097;28;20047;-74
2023/07/17 09:27:45;;;;;;;6.20;4.80;;;;;;;27.25;49.75;99280.38;5087519;28;20044;-73
2023/07/17 09:30:13;;;;;;;5.63;4.80;;;;;;;27.25;50.18;99274.94;5086967;28;20297;-74
2023/07/17 09:32:41;;;;;;;5.13;4.50;;;;;;;27.28;49.76;99286.28;5088142;28;20058;-74
2023/07/17 09:35:11;;;;;;;5.28;4.78;;;;;;;27.32;49.60;99276.69;5087440;28;20059;-73
2023/07/17 09:37:39;;;;;;;5.45;4.18;;;;;;;27.27;49.89;99278.31;5088305;28;20082;-74
2023/07/17 09:40:11;;;;;;;6.90;4.07;;;;;;;27.29;50.16;99282.53;5087540;28;20057;-74
2023/07/17 09:42:39;;;;;;;5.30;4.38;;;;;;;27.28;49.96;99278.13;5088034;28;20040;-74
2023/07/17 09:45:06;;;;;;;6.80;4.53;;;;;;;27.06;50.44;99241.88;5087052;28;20060;-74
2023/07/17 09:47:35;;;;;;;5.03;3.97;;;;;;;27.21;50.29;99258.13;5087544;28;20047;-74
2023/07/17 09:50:03;;;;;;;6.10;3.95;;;;;;;27.19;50.14;99265.66;5087450;28;20231;-74
2023/07/17 09:52:30;;;;;;;5.75;3.92;;;;;;;27.29;50.42;99285.25;5070130;28;20052;-74
2023/07/17 09:55:00;;;;;;;7.70;4.28;;;;;;;27.36;50.09;99283.44;5087273;28;20044;-74
2023/07/17 09:57:30;;;;;;;4.93;4.43;;;;;;;27.40;51.08;99284.72;5086594;28;20037;-74
2023/07/17 09:59:59;;;;;;;7.03;4.22;;;;;;;27.13;50.03;99250.94;5086917;28;20192;-73
2023/07/17 10:02:32;;;;;;;4.07;3.63;;;;;;;27.24;49.81;99295.88;5087840;28;20192;-74
2023/07/17 10:05:01;;;;;;;4.78;3.70;;;;;;;26.93;49.61;99249.88;5087861;28;20055;-74
2023/07/17 10:07:29;;;;;;;6.85;4.43;;;;;;;27.20;49.91;99294.53;5087156;28;20037;-74
2023/07/17 10:09:59;;;;;;;6.50;4.22;;;;;;;27.20;49.43;99289.09;5086724;28;20201;-75
2023/07/17 10:12:26;;;;;;;5.72;4.57;;;;;;;27.23;49.35;99298.78;5086934;28;20036;-75
2023/07/17 10:14:56;;;;;;;6.15;4.28;;;;;;;27.24;49.53;99281.44;5086099;28;20040;-75
2023/07/17 10:17:29;;;;;;;6.68;4.45;;;;;;;27.21;49.00;99273.63;5086307;28;20044;-75
2023/07/17 10:19:59;;;;;;;6.90;4.63;;;;;;;27.32;49.50;99273.13;5086389;28;20053;-75
2023/07/17 10:22:34;;;;;;;5.53;4.25;;;;;;;27.59;49.49;99260.63;5085628;28;20252;-75
2023/07/17 10:25:23;;;;;;;6.32;4.70;;;;;;;27.80;49.07;99236.94;5086006;28;20267;-76
2023/07/17 10:27:56;;;;;;;6.13;4.63;;;;;;;27.97;48.46;99259.31;5085234;28;20086;-76
2023/07/17 10:30:26;;;;;;;4.50;3.97;;;;;;;28.00;48.27;99263.53;5086529;28;20051;-76
2023/07/17 10:33:08;;;;;;;5.57;4.25;;;;;;;28.24;48.08;99257.59;5086603;28;20040;-76
2023/07/17 10:35:47;;;;;;;4.55;4.07;;;;;;;28.49;47.44;99246.25;5086266;28;20055;-76
2023/07/17 10:38:15;;;;;;;5.32;4.82;;;;;;;28.47;46.76;99251.03;5086633;28;20040;-76
2023/07/17 10:40:42;;;;;;;5.35;4.80;;;;;;;28.61;47.00;99250.91;5085080;28;20091;-76
2023/07/17 10:43:20;;;;;;;6.30;5.18;;;;;;;28.94;46.14;99240.13;5086633;28;20048;-75
2023/07/17 10:45:48;;;;;;;7.40;5.22;;;;;;;28.88;45.86;99243.66;5086126;28;20048;-75
2023/07/17 10:48:17;;;;;;;5.80;4.70;;;;;;;27.38;46.43;98978.47;5086724;28;20279;-76
2023/07/17 10:50:49;;;;;;;7.93;5.32;;;;;;;29.03;45.83;99227.16;5086568;28;20184;-76
2023/07/17 10:53:16;;;;;;;5.05;4.05;;;;;;;29.04;46.03;99235.13;5086625;28;20044;-76
2023/07/17 10:55:44;;;;;;;6.40;4.47;;;;;;;28.80;45.69;99188.47;5086422;28;20048;-76
2023/07/17 10:58:10;;;;;;;7.90;4.55;;;;;;;29.18;45.18;99236.00;5084580;28;20312;-76
2023/07/17 11:00:41;;;;;;;5.90;5.30;;;;;;;28.79;45.98;99176.72;5085288;28;20044;-76
2023/07/17 11:03:09;;;;;;;5.07;4.57;;;;;;;28.71;45.63;99169.56;5086301;28;20051;-75
2023/07/17 11:05:39;;;;;;;6.32;5.38;;;;;;;29.06;45.84;99215.84;5086280;28;20044;-76
2023/07/17 11:08:06;;;;;;;6.00;5.05;;;;;;;29.27;45.62;99191.09;5086269;28;20330;-76
2023/07/17 11:10:34;;;;;;;5.75;5.07;;;;;;;29.50;45.31;99223.44;5086413;28;20044;-76
2023/07/17 11:13:04;;;;;;;6.70;5.18;;;;;;;29.23;45.03;99213.56;5085067;28;20036;-76
2023/07/17 11:15:32;;;;;;;5.40;4.82;;;;;;;29.31;45.22;99210.63;5084948;28;20112;-76
2023/07/17 11:18:00;;;;;;;6.88;5.90;;;;;;;29.25;45.50;99215.03;5085500;28;20059;-75
2023/07/17 11:20:29;;;;;;;5.65;5.10;;;;;;;29.11;45.36;99223.41;5084797;28;20040;-76
2023/07/17 11:22:56;;;;;;;6.45;5.85;;;;;;;29.11;45.34;99209.75;5085705;28;20056;-76
2023/07/17 11:25:26;;;;;;;7.72;5.28;;;;;;;29.27;45.45;99206.63;5085514;28;20221;-76
2023/07/17 11:27:54;;;;;;;5.78;5.18;;;;;;;29.57;44.85;99215.25;5084771;28;20102;-76
2023/07/17 11:30:22;;;;;;;5.57;5.05;;;;;;;29.50;44.21;99215.25;5084750;28;20090;-76
2023/07/17 11:32:57;;;;;;;5.32;4.82;;;;;;;29.65;44.35;99215.91;5085971;28;20208;-76
2023/07/17 11:35:24;;;;;;;6.10;5.35;;;;;;;29.20;44.37;99154.78;5085378;28;20045;-76